Tiempo atmosférico en la estación meteorológica de Ávila, Ávila (1130 m.)



Fecha
DESCASC
Temp. máxima en grados centígrados (hora)
DESCASC
Temp. mínima en grados centígrados (hora)
DESCASC
Temp. media en grados centígrados
DESCASC
Racha de viento máxima en m/sg (hora)
DESCASC
Velocidad máxima media en intervalos de 10 minutos(hora)
DESCASC
Precipitaciones diarias en mm
DESCASC
Precipitaciones de 00:00 a 06:00 en mm
DESCASC
Precipitaciones de 06:00 a 12:00 en mm
DESCASC
Precipitaciones de 12:00 a 18:00 en mm
DESCASC
Precipitaciones de 18:00 a 24:00 en mm
DESCASC
23-05-2018 23.2 (16:50) 9.7 (06:10) 16.5 8.89 (19:30) 4.17 (19:30) 0 0 0 0 0
22-05-2018 20.8 (14:30) 9.2 (07:10) 15 6.94 (14:00) 3.61 (16:40) 0 0 0 0 0
21-05-2018 19.4 (19:10) 8.9 (08:20) 14.1 7.5 (13:30) 4.72 (13:30) 0.6 0 0 0.6 0
20-05-2018 18.3 (13:50) 9.1 (00:00) 13.7 10.83 (16:20) 6.11 (17:00) 0.2 0 0.2 0 0
19-05-2018 20 (16:10) 7.5 (00:00) 13.8 8.89 (15:20) 4.72 (16:00) 2.4 0 0 2 0.4
18-05-2018 18.1 (16:30) 8.5 (00:00) 13.3 13.06 (18:20) 7.78 (18:20) 8.6 2.8 0.6 0 5.2
17-05-2018 21.6 (15:20) 9.9 (00:00) 15.8 10 (11:30) 5.83 (16:30) 0 0 0 0 0
16-05-2018 21.4 (18:10) 5.5 (00:00) 13.4 6.94 (23:40) 4.17 (23:40) 0 0 0 0 0
15-05-2018 18.7 (19:20) 2.8 (00:00) 10.8 10.56 (17:50) 5.28 (18:00) 0 0 0 0 0
14-05-2018 14.2 (18:10) 6.2 (00:00) 10.2 10.28 (16:50) 6.11 (00:20) 0 0 0 0 0
13-05-2018 13.2 (18:10) 1 (00:00) 7.1 11.39 (01:00) 6.94 (17:00) 0 0 0 0 0
12-05-2018 14.3 (00:00) 6.4 (00:00) 10.4 12.78 (09:50) 7.78 (10:00) 0 0 0 0 0
11-05-2018 21 (14:30) 8 (06:10) 14.5 9.44 (16:40) 5 (15:40) 0 0 0 0 0
10-05-2018 20.1 (18:50) 8.5 (00:00) 14.3 9.17 (01:20) 5.28 (01:50) 0 0 0 0 0
09-05-2018 21.3 (16:20) 9 (00:00) 15.1 10 (14:20) 5.56 (19:10) 0.2 0.2 0 0 0
08-05-2018 22.2 (18:10) 10.3 (00:00) 16.3 10 (16:30) 5.83 (16:30) 0 0 0 0 0
07-05-2018 20.6 (17:30) 10.2 (00:00) 15.4 8.33 (20:50) 5 (20:50) 8.4 0 0 0 8.4
06-05-2018 20.5 (18:20) 10.3 (00:00) 15.4 10 (12:00) 5.83 (12:00) 0 0 0 0 0
05-05-2018 18.9 (18:20) 3.8 (00:00) 11.3 7.22 (17:00) 4.17 (17:30) 0 0 0 0 0
04-05-2018 15.3 (19:20) 1.2 (00:00) 8.3 8.61 (15:20) 5 (13:10) 0 0 0 0 0
03-05-2018 12.1 (17:40) 4.1 (00:00) 8.1 11.67 (17:30) 7.22 (20:10) 0 0 0 0 0
02-05-2018 13.8 (16:50) 2.7 (00:00) 8.3 9.72 (15:00) 6.11 (17:30) 0 0 0 0 0
01-05-2018 10.8 (18:50) 1.5 (07:50) 6.2 10.28 (15:30) 5 (14:10) 0 0 0 0 0
30-04-2018 8.3 (18:30) 0.2 (00:00) 4.3 12.78 (17:10) 6.94 (17:20) 2.6 0 0 1.6 1
29-04-2018 9.5 (16:40) 1 (00:00) 5.3 12.22 (15:30) 7.22 (16:50) 6.4 1.6 4.4 0.4 0
28-04-2018 13.4 (16:10) 5.9 (00:00) 9.6 11.11 (14:00) 5.83 (13:20) 0 0 0 0 0
27-04-2018 17.6 (16:20) 10.4 (00:00) 14 8.61 (14:00) 4.72 (13:50) 0 0 0 0 0
26-04-2018 22.3 (18:00) 6.5 (00:00) 14.4 13.61 (21:10) 5 (21:10) 12.8 0 0 0 12.8
25-04-2018 24 (17:20) 10.6 (00:00) 17.3 10.28 (16:30) 6.11 (16:30) 0 0 0 0 0
24-04-2018 23.6 (16:00) 11.8 (00:00) 17.7 10 (04:10) 4.72 (17:00) 0 0 0 0 0

Gráficas

Temp. máximas Temp. mínimas Temp. medias Precipitaciones Rachas de viento máximas Velocidades máximas media en intervalos de 10 minutos

Datos horarios

Fecha y hora oficial Temperatura (ºC) Velocidad del viento (km/h) Dirección del viento Racha (km/h) Dirección de racha Precipitación (mm) Presión (hPa) Tendencia (hPa) Humedad (%)
2018-05-23 23:00:00 16.5 5 Sur 9 Sur 0 889.7 1.7 57
2018-05-23 22:00:00 17.6 7 Sudoeste 16 Oeste 0 888.9 1.3 53
2018-05-23 21:00:00 18.5 10 Oeste 22 Sudoeste 0 888.5 0.5 46
2018-05-23 20:00:00 19.7 13 Sudoeste 32 Sudoeste 0 888 -0.1 43
2018-05-23 19:00:00 22.7 12 Sur 26 Sudeste 0 887.6 -0.9 36
2018-05-23 18:00:00 21.9 15 Sudeste 30 Sur 0 888 -1 40
2018-05-23 17:00:00 22.6 11 Sur 25 Sur 0 888.1 -1.4 36
2018-05-23 16:00:00 22.5 13 Sudeste 24 Sur 0 888.5 -1.5 42
2018-05-23 15:00:00 22.1 13 Sur 27 Sur 0 889 -0.9 42
2018-05-23 14:00:00 21.7 10 Sur 29 Sudeste 0 889.5 -0.4 45
2018-05-23 13:00:00 20.7 12 Sur 26 Sudeste 0 890 0.2 45
2018-05-23 12:00:00 20 13 Sudeste 23 Sudeste 0 889.9 0.2 54
2018-05-23 11:00:00 17.6 6 Sudeste 12 Sudeste 0 889.9 0.3 65
2018-05-23 10:00:00 15 4 Sudoeste 10 Sur 0 889.8 0.6 74
2018-05-23 09:00:00 13.3 5 Sur 8 Sudoeste 0 889.7 0.8 76
2018-05-23 08:00:00 10.4 2 Sudeste 10 Sudoeste 0 889.6 0.6 86
2018-05-23 07:00:00 9.7 4 Sudoeste 9 Sudoeste 0 889.2 0.2 87
2018-05-23 06:00:00 9.8 3 Sur 8 Sudoeste 0 888.9 -0.5 86
2018-05-23 05:00:00 10.5 4 Sur 9 Sudeste 0 889 -0.6 83
2018-05-23 04:00:00 10.8 4 Sudeste 7 Sudeste 0 889 -0.7 85
2018-05-23 03:00:00 11.7 0 Calma 8 Sudeste 0 889.4 0 82
2018-05-23 02:00:00 12 3 Este 6 Este 0 889.6 0.5 81
2018-05-23 01:00:00 13.3 4 Sudeste 11 Sudeste 0 889.7 1.2 75
2018-05-23 00:00:00 14.8 9 Sudeste 12 Sudeste 0 889.4 1.1 66
2018-05-22 23:00:00 15.9 6 Sudoeste 12 Sudoeste 0 889.1 1.1 66
2018-05-22 22:00:00 16.3 6 Sur 13 Sur 0 888.5 0.8 68
2018-05-22 21:00:00 17.4 5 Sudoeste 18 Sudoeste 0 888.3 0.6 60
2018-05-22 20:00:00 18.3 6 Sudoeste 17 Sudoeste 0 888 0.3 56
2018-05-22 19:00:00 18.9 4 Sudeste 15 Sudeste 0 887.7 0 50
2018-05-22 18:00:00 19 9 Sudeste 23 Sudeste 0 887.7 0 53
2018-05-22 17:00:00 18.9 11 Sudeste 22 Sudeste 0 887.7 0.1 55
2018-05-22 16:00:00 19.1 9 Sudoeste 19 Sudeste 0 887.7 0 50
2018-05-22 15:00:00 19.4 12 Sudeste 22 Este 0 887.7 0.1 52
2018-05-22 14:00:00 20.1 13 Nordeste 25 Norte 0 887.6 0.1 49
2018-05-22 13:00:00 18.4 4 Norte 12 Este 0 887.7 0.3 54
2018-05-22 12:00:00 18.9 5 Este 12 Noroeste 0 887.6 0.5 50
2018-05-22 11:00:00 17.7 2 Oeste 9 Sur 0 887.5 0.5 53
2018-05-22 10:00:00 15.3 2 Sur 9 Sudoeste 0 887.4 0.9 64
2018-05-22 09:00:00 12.4 4 Sur 12 Sur 0 887.1 1 78
2018-05-22 08:00:00 10.7 3 Sur 9 Sur 0 887 0.8 82
2018-05-22 07:00:00 9.3 4 Sudeste 10 Sudeste 0 886.5 0.2 88
2018-05-22 06:00:00 9.8 3 Sur 11 Sur 0 886.1 -0.2 86
2018-05-22 05:00:00 10.9 4 Sudoeste 8 Sur 0 886.2 -0.2 82
2018-05-22 04:00:00 11.8 2 Sudeste 8 Este 0 886.3 0 81
2018-05-22 03:00:00 12 6 Este 16 Este 0 886.3 -0.1 77
2018-05-22 02:00:00 12 3 Sudeste 8 Sudeste 0 886.4 0.3 76
2018-05-22 01:00:00 11.8 5 Sudeste 9 Sur 0 886.3 0.5 77
2018-05-22 00:00:00 12.8 5 Sur 9 Sur 0 886.4 1.2 73
2018-05-21 23:00:00 13.5 4 Sudoeste 10 Sur 0 886.1 1.3 68
2018-05-21 22:00:00 13.8 6 Sudeste 14 Sudeste 0 885.8 1.5 70
2018-05-21 21:00:00 15.2 6 Oeste 15 Noroeste 0 885.2 0.9 62
2018-05-21 20:00:00 16.6 10 Oeste 20 Sudoeste 0 884.8 0.3 61
2018-05-21 19:00:00 19.3 8 Sudoeste 16 Sudoeste 0 884.3 -0.7 49
2018-05-21 18:00:00 16.9 8 Sudeste 12 Este 0 884.3 -0.2 56
2018-05-21 17:00:00 14.9 7 Este 17 Norte 0.2 884.5 -0.2 70
2018-05-21 16:00:00 13.6 11 Norte 26 Noroeste 0.4 885 -0.1 78
2018-05-21 15:00:00 17.2 16 Noroeste 27 Noroeste 0 884.5 -0.8 57
2018-05-21 14:00:00 18.6 12 Sur 27 Sudeste 0 884.7 -0.6 48
2018-05-21 13:00:00 17.7 12 Sur 27 Sur 0 885.1 -0.1 53
2018-05-21 12:00:00 17 13 Sur 24 Sudeste 0 885.3 0.1 59
2018-05-21 11:00:00 14.9 13 Sudeste 24 Sudeste 0 885.3 0.1 68
2018-05-21 10:00:00 12.5 9 Sudeste 16 Sudeste 0 885.2 0.2 81
2018-05-21 09:00:00 9.5 5 Sur 10 Sudoeste 0 885.2 0.2 86
2018-05-21 08:00:00 9 5 Sudoeste 10 Sur 0 885.2 0.3 87
2018-05-21 07:00:00 9.8 3 Sudoeste 9 Sudeste 0 885 -0.2 87
2018-05-21 06:00:00 10.8 2 Norte 8 Este 0 885 -0.3 82
2018-05-21 05:00:00 11.2 4 Este 8 Este 0 884.9 -0.7 77
2018-05-21 04:00:00 11 2 Este 7 Este 0 885.2 -0.6 78
2018-05-21 03:00:00 10.8 3 Este 4 Este 0 885.3 -0.9 81
2018-05-21 02:00:00 11.9 2 Noroeste 6 Oeste 0 885.6 -0.4 78
2018-05-21 01:00:00 12.4 0 Calma 8 Este 0 885.8 0.1 70
2018-05-21 00:00:00 13 4 Sudeste 8 Sudeste 0 886.2 1 69
2018-05-20 23:00:00 13.3 5 Sudeste 9 Sur 0 886 0.6 70
2018-05-20 22:00:00 14.3 5 Sudoeste 14 Oeste 0 885.7 -0.2 61
2018-05-20 21:00:00 16 8 Sudoeste 14 Sur 0 885.2 -1 54
2018-05-20 20:00:00 14.7 9 Sudeste 21 Este 0 885.4 -1 58
2018-05-20 19:00:00 14.9 12 Este 23 Este 0 885.9 -0.8 60
2018-05-20 18:00:00 14.1 11 Oeste 31 Sudoeste 0 886.2 -0.4 63
2018-05-20 17:00:00 12.9 22 Sudoeste 39 Sudoeste 0 886.4 -0.5 72
2018-05-20 16:00:00 15 14 Sudeste 25 Sudeste 0 886.7 -0.8 52
2018-05-20 15:00:00 16.7 3 Nordeste 27 Este 0 886.6 -1.2 37
2018-05-20 14:00:00 18.1 12 Sudeste 24 Sur 0 886.9 -1.1 48
2018-05-20 13:00:00 17.3 11 Sudeste 23 Sur 0 887.5 -0.7 54
2018-05-20 12:00:00 16.1 12 Sur 23 Sudeste 0 887.8 -0.5 63
2018-05-20 11:00:00 15.2 12 Sudeste 25 Sur 0.2 888 -0.4 66
2018-05-20 10:00:00 13.8 13 Sudeste 22 Sur 0 888.2 0 67
2018-05-20 09:00:00 12.2 9 Sur 20 Sudoeste 0 888.3 0.2 74
2018-05-20 08:00:00 10.6 7 Sudeste 24 Sudeste 0 888.4 0.3 78
2018-05-20 07:00:00 9.8 8 Sudeste 21 Sur 0 888.2 -0.1 80
2018-05-20 06:00:00 10.3 9 Sudeste 19 Sudeste 0 888.1 -1 82
2018-05-20 05:00:00 10.2 8 Sur 14 Sur 0 888.1 -1.4 81
2018-05-20 04:00:00 9.6 3 Sudeste 10 Sur 0 888.3 -1.2 86
2018-05-20 03:00:00 9.1 2 Sur 9 Sur 0 889.1 -0.5 86
2018-05-20 02:00:00 9.7 0 Calma 8 Sur 0 889.5 0.2 85
2018-05-20 01:00:00 10.7 3 Sur 9 Sudoeste 0 889.5 0.6 81
2018-05-20 00:00:00 11.4 2 Sur 11 Sur 0 889.6 0.8 80
2018-05-19 23:00:00 12.3 4 Sudoeste 12 Sur 0 889.3 0.6 78
2018-05-19 22:00:00 14.1 6 Sudoeste 13 Oeste 0 888.9 -0.8 66
2018-05-19 21:00:00 16.3 5 Sudoeste 16 Sudeste 0 888.8 -0.3 63
2018-05-19 20:00:00 14.7 10 Sudeste 21 Sudeste 0 888.7 -0.4 76
2018-05-19 19:00:00 14.6 5 Sudeste 12 Oeste 0.4 889.7 0.6 77
2018-05-19 18:00:00 14.9 9 Sudoeste 23 Sudeste 1.4 889.1 -0.3 73
2018-05-19 17:00:00 16.4 15 Sudeste 28 Sudeste 0.6 889.1 -0.9 65
2018-05-19 16:00:00 19.6 17 Noroeste 32 Norte 0 889.1 -1.1 46
2018-05-19 15:00:00 19.3 17 Noroeste 28 Noroeste 0 889.4 -1 49
2018-05-19 14:00:00 17.3 14 Norte 23 Norte 0 890 -0.5 53
2018-05-19 13:00:00 18.3 11 Nordeste 20 Norte 0 890.2 -0.2 49
2018-05-19 12:00:00 16.7 6 Nordeste 13 Nordeste 0 890.4 0.2 56
2018-05-19 11:00:00 15.9 6 Norte 9 Nordeste 0 890.5 0.3 67
2018-05-19 10:00:00 14 3 Sudoeste 6 Sudoeste 0 890.4 0.6 72
2018-05-19 09:00:00 11.9 3 Sur 5 Sudeste 0 890.2 0.8 80
2018-05-19 08:00:00 9.8 0 Calma 6 Este 0 890.2 0.7 90
2018-05-19 07:00:00 9.2 2 Sudeste 10 Sur 0 889.8 0.3 91
2018-05-19 06:00:00 8.3 6 Sudoeste 11 Sudoeste 0 889.4 -0.3 95
2018-05-19 05:00:00 7.7 3 Este 8 Sudoeste 0 889.5 -0.5 95
2018-05-19 04:00:00 7.7 4 Sur 12 Sudoeste 0 889.5 -0.5 93
2018-05-19 03:00:00 8 4 Sur 12 Sudoeste 0 889.7 -0.5 94
2018-05-19 02:00:00 8 8 Sur 14 Sudoeste 0 890 0 92
2018-05-19 01:00:00 8.3 3 Sur 9 Sur 0 890 0.6 93
2018-05-19 00:00:00 9.2 5 Sur 8 Sur 0 890.2 0.8 92
2018-05-18 23:00:00 9.9 5 Sur 10 Sudoeste 0 890 1 88
2018-05-18 22:00:00 10.5 3 Sudeste 18 Nordeste 0 889.4 -0.4 86
2018-05-18 21:00:00 10.9 12 Nordeste 26 Nordeste 0 889.4 1.1 82
2018-05-18 20:00:00 10.9 11 Noroeste 19 Noroeste 2.4 889 1 88
2018-05-18 19:00:00 10.9 14 Este 47 Sudeste 2.8 889.8 1.6 86
2018-05-18 18:00:00 17.3 9 Sudeste 23 Sur 0 888.3 -0.4 49
2018-05-18 17:00:00 17.6 14 Sur 25 Sur 0 888 -1.1 49
2018-05-18 16:00:00 17.9 10 Sudeste 24 Sur 0 888.2 -0.9 49
2018-05-18 15:00:00 17 12 Sudeste 26 Sur 0 888.7 -0.5 49
2018-05-18 14:00:00 16.6 17 Sudeste 30 Sudeste 0 889.1 0 51
2018-05-18 13:00:00 16 11 Sur 26 Sudeste 0 889.1 0.4 52
2018-05-18 12:00:00 13 11 Sudeste 19 Sudeste 0.2 889.2 0.9 71
2018-05-18 11:00:00 10.4 12 Sudeste 20 Sudeste 0 889.1 1 79
2018-05-18 10:00:00 10.9 10 Sudeste 24 Este 0 888.7 0.5 75
2018-05-18 09:00:00 10 12 Sudeste 23 Sudeste 0.2 888.3 -0.3 84
2018-05-18 08:00:00 9.1 10 Este 19 Este 0 888.1 -0.7 84
2018-05-18 07:00:00 8.6 9 Sudeste 15 Sur 0.2 888.2 -0.3 90
2018-05-18 06:00:00 8.6 4 Sur 20 Sudoeste 1.4 888.6 -0.1 89
2018-05-18 05:00:00 9.4 13 Sudoeste 27 Oeste 0 888.8 0 86
2018-05-18 04:00:00 10.3 9 Sudoeste 13 Sudoeste 0.8 888.5 -0.5 93
2018-05-18 03:00:00 10.5 8 Sur 14 Sudeste 0.6 888.7 0.1 90
2018-05-18 02:00:00 10.6 5 Oeste 14 Noroeste 0 888.8 0 88
2018-05-18 01:00:00 10.7 7 Noroeste 23 Nordeste 0 889 0.5 87
2018-05-18 00:00:00 10.8 17 Nordeste 30 Nordeste 0 888.6 0.9 84
2018-05-17 23:00:00 11.7 12 Norte 36 Norte 0 888.8 1 77
2018-05-17 22:00:00 13.6 8 Oeste 23 Oeste 0 888.5 1.2 66
2018-05-17 21:00:00 13.7 11 Este 19 Norte 0 887.7 0.6 65
2018-05-17 20:00:00 14.6 9 Norte 24 Noroeste 0 887.8 0.4 63
2018-05-17 19:00:00 16.9 11 Sudoeste 24 Sudoeste 0 887.3 -0.1 47
2018-05-17 18:00:00 17.5 13 Sudoeste 30 Sudoeste 0 887.1 -0.2 44
2018-05-17 17:00:00 17.9 15 Oeste 32 Sudoeste 0 887.4 -0.4 43
2018-05-17 16:00:00 18.9 17 Sudoeste 32 Sudoeste 0 887.4 -0.8 41
2018-05-17 15:00:00 21 9 Sudeste 21 Sur 0 887.3 -1 31
2018-05-17 14:00:00 20.3 14 Sudeste 30 Sudeste 0 887.8 -0.5 32
2018-05-17 13:00:00 19.1 14 Sudeste 33 Sur 0 888.2 -0.2 34
2018-05-17 12:00:00 18 15 Sudeste 36 Sudeste 0 888.3 0.2 35
2018-05-17 11:00:00 16.7 15 Sudeste 28 Sudeste 0 888.3 0.2 40
2018-05-17 10:00:00 15.1 10 Sur 29 Sur 0 888.4 0.5 44
2018-05-17 09:00:00 13.3 6 Sur 18 Sur 0 888.1 0.3 50
2018-05-17 08:00:00 11 3 Sur 17 Sudeste 0 888.1 0.5 58
2018-05-17 07:00:00 10.8 9 Sudeste 22 Sur 0 887.9 -0.1 58
2018-05-17 06:00:00 11.4 11 Sudeste 22 Sudeste 0 887.8 -0.4 56
2018-05-17 05:00:00 11.1 11 Sudeste 23 Sudeste 0 887.6 -0.6 57
2018-05-17 04:00:00 9.9 4 Sur 8 Sur 0 888 -0.4 68
2018-05-17 03:00:00 10.6 5 Sur 10 Sur 0 888.2 -0.2 70
2018-05-17 02:00:00 11.2 3 Sur 7 Oeste 0 888.2 0.2 69
2018-05-17 01:00:00 13.2 3 Oeste 19 Nordeste 0 888.4 1 61
2018-05-17 00:00:00 14.4 13 Nordeste 25 Nordeste 0 888.4 1.1 58
2018-05-16 23:00:00 15.6 0 Calma 8 Noroeste 0 888 0.9 51
2018-05-16 22:00:00 17 2 Sudeste 8 Sur 0 887.4 0.2 45
2018-05-16 21:00:00 18.6 3 Sudeste 10 Nordeste 0 887.3 0 39
2018-05-16 20:00:00 19.3 6 Nordeste 17 Este 0 887.1 -0.4 37
2018-05-16 19:00:00 20.2 10 Sudeste 19 Sudeste 0 887.2 -1 34
2018-05-16 18:00:00 20.9 6 Sur 18 Sur 0 887.3 -1.1 33
2018-05-16 17:00:00 20.2 8 Este 17 Sudeste 0 887.5 -1.2 36
2018-05-16 16:00:00 19.8 7 Sudeste 21 Nordeste 0 888.2 -0.9 40
2018-05-16 15:00:00 19 5 Nordeste 17 Nordeste 0 888.4 -0.8 44
2018-05-16 14:00:00 17.5 9 Noroeste 18 Noroeste 0 888.7 -0.6 49
2018-05-16 13:00:00 18.4 4 Sudeste 17 Este 0 889.1 -0.4 48
2018-05-16 12:00:00 17.4 9 Sudeste 17 Este 0 889.2 -0.3 47
2018-05-16 11:00:00 15 2 Oeste 8 Sudeste 0 889.3 -0.3 56
2018-05-16 10:00:00 11.5 2 Nordeste 8 Sur 0 889.5 0.2 69
2018-05-16 09:00:00 9.1 3 Sudoeste 5 Sudoeste 0 889.5 0.1 71
2018-05-16 08:00:00 7 0 Calma 5 Sur 0 889.6 0 82
2018-05-16 07:00:00 5.7 3 Sur 7 Noroeste 0 889.3 -0.7 84
2018-05-16 06:00:00 6.2 3 Este 8 Este 0 889.4 -0.9 85
2018-05-16 05:00:00 6.5 2 Sur 6 Sudeste 0 889.6 -1.2 83
2018-05-16 04:00:00 7.6 4 Sur 7 Sur 0 890 -0.9 80
2018-05-16 03:00:00 8.5 2 Noroeste 7 Oeste 0 890.3 -0.2 75
2018-05-16 02:00:00 9.7 3 Noroeste 11 Noroeste 0 890.8 0.2 72
2018-05-16 01:00:00 10.7 6 Noroeste 19 Norte 0 890.9 1 67
2018-05-16 00:00:00 11.9 18 Norte 26 Norte 0 890.5 0.9 62
2018-05-15 23:00:00 13.2 9 Nordeste 19 Nordeste 0 890.6 1.3 57
2018-05-15 22:00:00 14.9 10 Nordeste 18 Nordeste 0 889.9 0.5 52
2018-05-15 21:00:00 17.4 11 Nordeste 22 Nordeste 0 889.6 -0.1 36
2018-05-15 20:00:00 18.6 13 Nordeste 34 Norte 0 889.3 -0.6 33
2018-05-15 19:00:00 18.5 12 Norte 34 Nordeste 0 889.4 -1.1 35
2018-05-15 18:00:00 18.2 19 Norte 38 Norte 0 889.7 -1.4 36
2018-05-15 17:00:00 18 17 Nordeste 32 Norte 0 889.9 -1.6 37
2018-05-15 16:00:00 17.2 18 Norte 32 Norte 0 890.5 -1.6 39
2018-05-15 15:00:00 15.4 17 Norte 30 Norte 0 891.1 -1.1 40
2018-05-15 14:00:00 14.2 12 Norte 28 Norte 0 891.5 -0.9 40
2018-05-15 13:00:00 12.5 13 Norte 24 Norte 0 892.1 -0.5 38
2018-05-15 12:00:00 10.3 13 Noroeste 21 Noroeste 0 892.2 -0.2 42
2018-05-15 11:00:00 8.4 10 Noroeste 21 Norte 0 892.4 -0.3 52
2018-05-15 10:00:00 6.6 14 Norte 25 Noroeste 0 892.6 0.4 54
2018-05-15 09:00:00 5.3 6 Noroeste 10 Noroeste 0 892.4 0.3 59
2018-05-15 08:00:00 3.7 4 Noroeste 11 Norte 0 892.7 0.4 69
2018-05-15 07:00:00 2.9 5 Norte 10 Norte 0 892.2 -0.3 73
2018-05-15 06:00:00 3.3 3 Noroeste 8 Noroeste 0 892.1 -0.6 77
2018-05-15 05:00:00 3.9 5 Noroeste 8 Noroeste 0 892.3 -0.5 71
2018-05-15 04:00:00 4.9 5 Noroeste 11 Norte 0 892.5 -0.2 71
2018-05-15 03:00:00 5.6 5 Noroeste 8 Oeste 0 892.7 0.1 67
2018-05-15 02:00:00 6.7 4 Oeste 9 Oeste 0 892.8 0.2 67
2018-05-15 01:00:00 7.5 5 Noroeste 16 Nordeste 0 892.7 0.9 64
2018-05-15 00:00:00 8.6 9 Nordeste 19 Este 0 892.6 1 56
2018-05-14 23:00:00 9.7 7 Nordeste 17 Nordeste 0 892.6 1 47
2018-05-14 22:00:00 11.1 6 Norte 25 Norte 0 891.8 0.3 49
2018-05-14 21:00:00 13 17 Norte 32 Norte 0 891.6 0 45
2018-05-14 20:00:00 13.7 17 Norte 33 Norte 0 891.6 -0.1 42
2018-05-14 19:00:00 13.3 16 Norte 33 Norte 0 891.5 -0.2 45
2018-05-14 18:00:00 13.8 14 Norte 33 Norte 0 891.6 0 45
2018-05-14 17:00:00 12.6 21 Nordeste 37 Norte 0 891.7 -0.1 50
2018-05-14 16:00:00 13.1 18 Norte 31 Norte 0 891.7 -0.3 51
2018-05-14 15:00:00 12 13 Norte 25 Norte 0 891.6 -0.1 64
2018-05-14 14:00:00 9.7 15 Noroeste 26 Noroeste 0 891.8 0.2 78
2018-05-14 13:00:00 9.2 14 Noroeste 28 Noroeste 0 892 0.6 77
2018-05-14 12:00:00 8.8 18 Noroeste 28 Noroeste 0 891.7 0.1 77
2018-05-14 11:00:00 8.1 16 Noroeste 24 Noroeste 0 891.6 -0.1 79
2018-05-14 10:00:00 7.2 17 Noroeste 28 Noroeste 0 891.4 -0.3 82
2018-05-14 09:00:00 6.7 12 Noroeste 23 Noroeste 0 891.6 -0.2 83
2018-05-14 08:00:00 6.5 14 Noroeste 26 Oeste 0 891.7 -0.3 81
2018-05-14 07:00:00 6.2 15 Noroeste 28 Oeste 0 891.7 -0.4 81
2018-05-14 06:00:00 6.2 19 Oeste 29 Noroeste 0 891.8 -0.8 80
2018-05-14 05:00:00 6.3 18 Noroeste 27 Noroeste 0 892 -1.1 78
2018-05-14 04:00:00 6.3 14 Noroeste 24 Oeste 0 892.1 -0.9 78
2018-05-14 03:00:00 6.5 14 Noroeste 30 Noroeste 0 892.6 -0.4 76
2018-05-14 02:00:00 7 14 Noroeste 28 Noroeste 0 893.1 0.3 72
2018-05-14 01:00:00 7.3 15 Noroeste 36 Noroeste 0 893 0.3 70
2018-05-11 20:00:00 18.7 3 Este 14 Norte 0 888.4 -0.9 54
2018-05-11 19:00:00 18.6 8 Este 14 Este 0 888.6 -0.5 58
2018-05-11 18:00:00 18.2 8 Nordeste 22 Sudeste 0 889 -0.3 60
2018-05-11 17:00:00 17.2 14 Este 34 Oeste 0 889.3 -0.2 67
2018-05-11 16:00:00 20.7 18 Noroeste 32 Noroeste 0 889.1 -0.6 54
2018-05-11 15:00:00 20.6 12 Sudeste 27 Sudeste 0 889.3 -0.5 42
2018-05-11 14:00:00 20.2 14 Sudeste 28 Sudeste 0 889.5 -0.4 48
2018-05-11 13:00:00 19.2 11 Sur 30 Sur 0 889.7 -0.1 54
2018-05-11 12:00:00 18.6 10 Sudeste 22 Sudeste 0 889.8 0.3 55
2018-05-11 11:00:00 17.9 8 Sur 16 Sudeste 0 889.9 0.7 56
2018-05-11 10:00:00 14.8 6 Sur 12 Sudeste 0 889.8 0.7 64
2018-05-11 09:00:00 11.7 4 Sudoeste 7 Sudoeste 0 889.5 0.6 67
2018-05-11 08:00:00 8.7 3 Sur 7 Sur 0 889.2 0.2 76
2018-05-11 07:00:00 8.1 2 Sudeste 9 Sudeste 0 889.1 -0.2 77
2018-05-11 06:00:00 8.1 5 Sudeste 8 Sudeste 0 888.9 -0.9 76
2018-05-11 05:00:00 8.7 3 Sur 12 Sur 0 889 -0.8 73
2018-05-11 04:00:00 8.8 4 Sur 8 Sur 0 889.3 -0.6 73
2018-05-11 03:00:00 9.2 5 Sur 10 Sur 0 889.8 -0.3 74
2018-05-11 02:00:00 9.8 2 Este 8 Sur 0 889.8 -0.2 70
2018-05-11 01:00:00 11 3 Sur 6 Sur 0 889.9 0.7 67
2018-05-11 00:00:00 12.3 0 Calma 12 Norte 0 890.1 1.5 60
2018-05-10 23:00:00 13.5 6 Norte 19 Norte 0 890 1.6 57
2018-05-10 22:00:00 15.4 12 Norte 19 Norte 0 889.2 1.1 50
2018-05-10 21:00:00 17.9 9 Nordeste 20 Norte 0 888.6 0.3 41
2018-05-10 20:00:00 19.6 13 Norte 26 Nordeste 0 888.4 0 34
2018-05-10 19:00:00 19.9 10 Norte 22 Noroeste 0 888.1 -0.8 35
2018-05-10 18:00:00 19.7 10 Noroeste 26 Noroeste 0 888.3 -0.8 37
2018-05-10 17:00:00 19.1 12 Noroeste 22 Noroeste 0 888.4 -1 47
2018-05-10 16:00:00 18.6 7 Norte 27 Noroeste 0 888.9 -0.6 54
2018-05-10 15:00:00 16.9 8 Nordeste 28 Norte 0 889.1 -0.3 56
2018-05-10 14:00:00 15.4 8 Nordeste 23 Nordeste 0 889.4 0.2 65
2018-05-10 13:00:00 13.6 9 Norte 17 Noroeste 0 889.5 0.4 68
2018-05-10 12:00:00 12.2 6 Norte 13 Norte 0 889.4 0.6 75
2018-05-10 11:00:00 10.6 6 Norte 16 Norte 0 889.2 0.9 78
2018-05-10 10:00:00 9.2 9 Norte 17 Norte 0 889.1 1.5 85
2018-05-10 09:00:00 8.7 13 Norte 21 Norte 0 888.8 1.8 88
2018-05-10 08:00:00 8.8 13 Norte 22 Noroeste 0 888.3 1.3 92
2018-05-10 07:00:00 9.4 11 Noroeste 21 Noroeste 0 887.6 1.2 94
2018-05-10 06:00:00 9.8 13 Noroeste 22 Noroeste 0 887 0.7 83
2018-05-10 05:00:00 10.9 14 Noroeste 26 Noroeste 0 887 0.3 83
2018-05-10 04:00:00 12.1 9 Noroeste 14 Noroeste 0 886.4 -0.2 70
2018-05-10 03:00:00 12.5 10 Oeste 28 Oeste 0 886.3 -0.2 68
2018-05-10 02:00:00 13.1 16 Noroeste 33 Noroeste 0 886.7 0.5 69
2018-05-10 01:00:00 13.9 10 Oeste 21 Oeste 0 886.6 1.1 74
2018-05-10 00:00:00 15 10 Oeste 19 Oeste 0 886.5 1.4 74
2018-05-09 23:00:00 15.7 13 Noroeste 27 Noroeste 0 886.2 1.6 67
2018-05-09 22:00:00 16.3 19 Noroeste 31 Noroeste 0 885.5 1.1 67
2018-05-09 21:00:00 17.7 18 Noroeste 30 Noroeste 0 885.1 0.8 50
2018-05-09 20:00:00 18.7 18 Noroeste 30 Noroeste 0 884.6 0.1 47
2018-05-09 19:00:00 19.8 20 Noroeste 34 Norte 0 884.4 -0.4 49
2018-05-09 18:00:00 20.4 18 Noroeste 30 Noroeste 0 884.3 -0.9 44
2018-05-09 17:00:00 21.2 16 Noroeste 32 Noroeste 0 884.5 -0.9 43
2018-05-09 16:00:00 20.7 19 Noroeste 31 Noroeste 0 884.8 -1 44
2018-05-09 15:00:00 20.2 18 Noroeste 36 Noroeste 0 885.2 -0.7 49
2018-05-09 14:00:00 19.7 19 Noroeste 31 Norte 0 885.4 -0.6 56
2018-05-09 13:00:00 18.3 10 Norte 20 Noroeste 0 885.8 0 62
2018-05-09 12:00:00 16.9 9 Norte 18 Norte 0 885.9 0.1 69
2018-05-09 11:00:00 16.2 8 Norte 14 Norte 0 886 0.3 71
2018-05-09 10:00:00 13.7 2 Sur 8 Sudoeste 0 885.8 0.3 74
2018-05-09 09:00:00 11.2 4 Sudoeste 9 Sur 0 885.8 0.2 83
2018-05-09 08:00:00 9.6 3 Sudeste 8 Sudeste 0 885.7 -0.3 91
2018-05-09 07:00:00 9.4 0 Calma 7 Sudeste 0 885.5 -0.5 91
2018-05-09 06:00:00 9.8 4 Sudeste 7 Sur 0 885.6 -0.5 91
2018-05-09 05:00:00 10.2 2 Sudeste 9 Sudeste 0 886 -0.4 91
2018-05-09 04:00:00 11.2 3 Sudoeste 13 Norte 0 886 -0.9 87
2018-05-09 03:00:00 11.9 5 Oeste 15 Sur 0 886.1 -1.2 86
2018-05-09 02:00:00 12.8 2 Sur 10 Sudoeste 0 886.4 -0.9 83
2018-05-09 01:00:00 13.9 5 Sudoeste 21 Nordeste 0.2 886.9 0.6 75
2018-05-09 00:00:00 14.8 13 Nordeste 28 Nordeste 0 887.3 1.8 71
2018-05-08 23:00:00 15.5 13 Norte 28 Nordeste 0 887.3 2.2 66
2018-05-08 22:00:00 17.4 16 Norte 30 Noroeste 0 886.3 1 59
2018-05-08 21:00:00 19.9 12 Norte 24 Nordeste 0 885.5 0.1 44
2018-05-08 20:00:00 21.3 14 Norte 27 Norte 0 885.1 -0.5 42
2018-05-08 19:00:00 21.7 16 Norte 30 Norte 0 885.3 -0.8 38
2018-05-08 18:00:00 22 16 Noroeste 27 Norte 0 885.4 -0.9 39
2018-05-08 17:00:00 20.8 18 Norte 36 Norte 0 885.6 -1.2 46
2018-05-08 16:00:00 20.2 16 Norte 27 Norte 0 886.1 -1.1 51
2018-05-08 15:00:00 21.3 10 Noroeste 23 Noroeste 0 886.3 -1.2 50
2018-05-08 14:00:00 20.1 8 Norte 20 Norte 0 886.8 -0.9 53
2018-05-08 13:00:00 19.2 10 Noroeste 19 Noroeste 0 887.2 -0.6 56
2018-05-08 12:00:00 18 7 Noroeste 15 Norte 0 887.5 -0.2 64
2018-05-08 11:00:00 15.5 5 Norte 10 Norte 0 887.7 0.2 70
2018-05-08 10:00:00 13.2 3 Sur 6 Sur 0 887.8 0.5 81
2018-05-08 09:00:00 11.3 3 Sur 7 Sur 0 887.7 0.4 87
2018-05-08 08:00:00 10.7 0 Calma 5 Sudeste 0 887.5 0 89
2018-05-08 07:00:00 10.4 2 Sudeste 5 Sudeste 0 887.3 -0.3 91
2018-05-08 06:00:00 10.5 2 Este 6 Sur 0 887.3 -0.6 91
2018-05-08 05:00:00 10.9 3 Sur 8 Sudoeste 0 887.5 -0.9 91
2018-05-08 04:00:00 11.3 2 Sur 10 Sudoeste 0 887.6 -1.3 88
2018-05-08 03:00:00 12 3 Sur 12 Oeste 0 887.9 -1.2 87
2018-05-08 02:00:00 12.4 8 Noroeste 17 Noroeste 0 888.4 -0.4 87
2018-05-08 01:00:00 12.6 6 Noroeste 16 Sur 0 888.9 0.5 87
2018-05-08 00:00:00 12.4 10 Sur 19 Sudoeste 0 889.1 0.5 90
2018-05-07 23:00:00 12.7 8 Sudoeste 16 Oeste 0 888.8 1.2 88
2018-05-07 22:00:00 13.3 6 Oeste 30 Norte 2.4 888.4 0.6 88
2018-05-07 21:00:00 14.2 16 Nordeste 30 Este 0.2 888.6 1.2 78
2018-05-07 20:00:00 16.6 6 Sur 26 Nordeste 4.6 887.6 -0.1 71
2018-05-07 19:00:00 19 10 Sudeste 18 Sudeste 1.2 887.8 -0.5 63
2018-05-07 18:00:00 19.7 7 Sur 21 Sur 0 887.4 -1.3 48
2018-05-07 17:00:00 19.5 15 Sudeste 26 Sudeste 0 887.7 -1.5 50
2018-05-07 16:00:00 20.1 8 Sur 24 Sudeste 0 888.3 -1.4 46
2018-05-07 15:00:00 20.2 10 Este 22 Este 0 888.7 -1.2 46
2018-05-07 14:00:00 19.5 9 Este 18 Este 0 889.2 -0.7 46
2018-05-07 13:00:00 18.4 6 Este 17 Este 0 889.7 0 44
2018-05-07 12:00:00 16.9 6 Nordeste 10 Nordeste 0 889.9 0.3 53
2018-05-07 11:00:00 14.3 3 Sudeste 7 Sur 0 889.9 0.5 66
2018-05-07 10:00:00 13 5 Sur 9 Sudoeste 0 889.7 0.5 70
2018-05-07 09:00:00 11.3 5 Sur 11 Sur 0 889.6 0.4 75
2018-05-07 08:00:00 10.5 3 Sudoeste 11 Sudoeste 0 889.4 0.3 78
2018-05-07 07:00:00 10.5 5 Sur 11 Sur 0 889.2 -0.1 76
2018-05-07 06:00:00 11.2 8 Sur 14 Sur 0 889.2 -0.2 73
2018-05-07 05:00:00 11.7 9 Sur 18 Sudeste 0 889.1 -0.5 71
2018-05-07 04:00:00 12.1 5 Sudeste 12 Sudeste 0 889.3 -0.5 70
2018-05-07 03:00:00 12.5 5 Sudeste 22 Sudeste 0 889.4 -0.3 69
2018-05-07 02:00:00 13.2 10 Sudeste 19 Sudeste 0 889.6 0.2 66
2018-05-07 01:00:00 13.9 6 Sudeste 10 Sur 0 889.8 0.4 64
2018-05-07 00:00:00 15.4 3 Noroeste 10 Sudeste 0 889.7 0.9 63
2018-05-06 23:00:00 15.9 5 Este 19 Este 0 889.4 1.4 59
2018-05-06 22:00:00 16.8 13 Este 22 Nordeste 0 889.4 1.2 52
2018-05-06 21:00:00 18.3 7 Sur 10 Sur 0 888.8 0.4 43
2018-05-06 20:00:00 19.5 7 Sur 18 Sudeste 0 888 -0.7 40
2018-05-06 19:00:00 19.7 11 Sudeste 27 Sudeste 0 888.2 -0.9 39
2018-05-06 18:00:00 20.2 11 Sudeste 28 Este 0 888.4 -1.1 40
2018-05-06 17:00:00 20.2 14 Sudeste 29 Este 0 888.7 -0.9 41
2018-05-06 16:00:00 19.7 14 Sudeste 32 Sudeste 0 889.1 -0.8 45
2018-05-06 15:00:00 18.9 16 Sudeste 32 Sudeste 0 889.5 -0.8 46
2018-05-06 14:00:00 18.2 14 Sudeste 31 Sudeste 0 889.6 -0.8 53
2018-05-06 13:00:00 17.4 13 Sudeste 33 Sudeste 0 889.9 -0.6 55
2018-05-06 12:00:00 15.9 21 Sudeste 36 Sudeste 0 890.3 0.1 59
2018-05-06 11:00:00 14 18 Sudeste 31 Sur 0 890.4 0.6 69
2018-05-06 10:00:00 13.5 10 Sudeste 26 Sudeste 0 890.5 1.2 72
2018-05-06 09:00:00 11.3 5 Sur 19 Sur 0 890.2 1 80
2018-05-06 08:00:00 10.5 13 Sudeste 26 Sudeste 0 889.8 0.3 86
2018-05-06 07:00:00 10.4 10 Sudeste 19 Sur 0 889.3 0.1 86
2018-05-06 06:00:00 10.4 10 Sur 20 Sur 0 889.2 -0.3 85
2018-05-06 05:00:00 10.5 6 Sudeste 31 Sur 0 889.5 -0.3 85
2018-05-06 04:00:00 10.8 14 Sudeste 29 Sur 0 889.2 -0.4 84
2018-05-06 03:00:00 11.2 9 Sur 21 Sudeste 0 889.5 0 80
2018-05-06 02:00:00 12.2 10 Sudeste 30 Sudeste 0 889.8 0.3 74
2018-05-06 01:00:00 11.4 3 Este 7 Este 0 889.6 0.6 67
2018-05-06 00:00:00 12.6 4 Sudeste 10 Sudeste 0 889.5 0.8 62
2018-05-05 23:00:00 13.6 8 Norte 14 Norte 0 889.5 1.1 58
2018-05-05 22:00:00 14.7 9 Norte 17 Noroeste 0 889 0.9 55
2018-05-05 21:00:00 16.7 12 Noroeste 22 Norte 0 888.7 0.5 49
2018-05-05 20:00:00 18.1 14 Norte 23 Norte 0 888.4 0 44
2018-05-05 19:00:00 18.5 12 Norte 22 Noroeste 0 888.1 -0.5 42
2018-05-05 18:00:00 18.6 10 Noroeste 26 Norte 0 888.2 -0.4 41
2018-05-05 17:00:00 18.5 14 Norte 26 Norte 0 888.4 -0.4 43
2018-05-05 16:00:00 18.1 12 Norte 26 Norte 0 888.6 -0.5 41
2018-05-05 15:00:00 17.8 9 Norte 23 Noroeste 0 888.6 -0.7 42
2018-05-05 14:00:00 16.9 13 Norte 22 Noroeste 0 888.8 -0.6 46
2018-05-05 13:00:00 15.7 10 Norte 18 Noroeste 0 889.1 -0.1 46
2018-05-05 12:00:00 14.4 5 Norte 14 Norte 0 889.3 0.3 57
2018-05-05 11:00:00 12 9 Norte 14 Norte 0 889.4 0.5 66
2018-05-05 10:00:00 9.6 6 Noroeste 11 Noroeste 0 889.2 0.7 72
2018-05-05 09:00:00 7 4 Sur 7 Sur 0 889 0.7 80
2018-05-05 08:00:00 4.5 3 Sur 6 Sudeste 0 888.9 0.5 89
2018-05-05 07:00:00 3.9 3 Sudeste 9 Sur 0 888.5 0.1 90
2018-05-05 06:00:00 4.1 5 Sur 10 Sur 0 888.3 -0.7 90
2018-05-05 05:00:00 4.3 5 Sur 8 Sur 0 888.4 -0.6 88
2018-05-05 04:00:00 4.8 3 Sudeste 8 Sudeste 0 888.4 -0.7 86
2018-05-05 03:00:00 5.1 0 Calma 3 Este 0 889 -0.1 86
2018-05-05 02:00:00 5.9 0 Calma 10 Norte 0 889 0.1 85
2018-05-05 01:00:00 6.7 6 Norte 12 Norte 0 889.1 0.8 80
2018-05-05 00:00:00 7.7 8 Norte 14 Norte 0 889.1 1.4 75
2018-05-04 23:00:00 8.9 10 Nordeste 23 Norte 0 888.9 1.8 71
2018-05-04 22:00:00 10.2 13 Norte 30 Nordeste 0 888.3 1.1 65
2018-05-04 21:00:00 13.3 14 Norte 26 Norte 0 887.7 0.6 52
2018-05-04 20:00:00 14.7 13 Norte 23 Norte 0 887.1 0 47
2018-05-04 19:00:00 15 13 Norte 25 Nordeste 0 887.2 -0.3 45
2018-05-04 18:00:00 14.5 13 Norte 29 Noroeste 0 887.1 -0.4 46
2018-05-04 17:00:00 14 14 Norte 25 Nordeste 0 887.1 -0.7 47
2018-05-04 16:00:00 13.2 12 Nordeste 31 Norte 0 887.5 -0.5 46
2018-05-04 15:00:00 12.1 14 Norte 29 Nordeste 0 887.5 -0.7 50
2018-05-04 14:00:00 10.4 16 Nordeste 31 Norte 0 887.8 -0.2 55
2018-05-04 13:00:00 9.1 15 Norte 29 Norte 0 888 0 57
2018-05-04 12:00:00 7.6 10 Norte 28 Norte 0 888.2 0.1 65
2018-05-04 11:00:00 5 16 Norte 24 Norte 0 888 0.1 72
2018-05-04 10:00:00 3.6 12 Norte 19 Norte 0 888 0.2 76
2018-05-04 09:00:00 1.7 11 Norte 19 Norte 0 888.1 0.2 88
2018-05-04 08:00:00 1.4 8 Norte 15 Norte 0 887.9 0 89
2018-05-04 07:00:00 1.3 8 Norte 14 Norte 0 887.8 -0.4 89
2018-05-04 06:00:00 1.5 6 Norte 17 Norte 0 887.9 -0.6 88
2018-05-04 05:00:00 1.4 10 Noroeste 15 Norte 0 887.9 -1.3 88
2018-05-04 04:00:00 1.4 6 Noroeste 14 Norte 0 888.2 -1.2 86
2018-05-04 03:00:00 1.8 9 Norte 14 Noroeste 0 888.5 -0.7 83
2018-05-04 02:00:00 2.5 7 Noroeste 17 Norte 0 889.2 -0.1 79
2018-05-04 01:00:00 3.2 10 Norte 22 Norte 0 889.4 0.9 78
2018-05-04 00:00:00 4.1 14 Norte 22 Norte 0 889.2 1.2 77
2018-05-03 23:00:00 5 10 Norte 28 Nordeste 0 889.3 1.7 72
2018-05-03 22:00:00 6.4 14 Norte 28 Norte 0 888.5 0.9 65
2018-05-03 21:00:00 8.3 19 Norte 40 Norte 0 888 0.4 59
2018-05-03 20:00:00 9.8 20 Norte 39 Norte 0 887.6 0.1 51
2018-05-03 19:00:00 10.6 23 Norte 41 Norte 0 887.6 -0.5 44
2018-05-03 18:00:00 11.6 17 Nordeste 42 Norte 0 887.6 -0.9 42
2018-05-03 17:00:00 11.9 20 Norte 37 Norte 0 887.5 -1.2 46
2018-05-03 16:00:00 11 23 Norte 36 Norte 0 888.1 -0.9 48
2018-05-03 15:00:00 10.3 21 Norte 33 Norte 0 888.5 -0.3 61
2018-05-03 14:00:00 8.8 18 Norte 29 Norte 0 888.7 0.1 73
2018-05-03 13:00:00 7.3 12 Norte 26 Norte 0 889 0.5 91
2018-05-03 12:00:00 7.1 12 Norte 21 Norte 0 888.8 0.4 94
2018-05-03 11:00:00 6.8 12 Norte 24 Noroeste 0 888.6 0.3 96
2018-05-03 10:00:00 7.1 16 Noroeste 24 Noroeste 0 888.5 0.2 93
2018-05-03 09:00:00 7.6 15 Noroeste 21 Noroeste 0 888.4 0.1 87
2018-05-03 08:00:00 7.7 13 Noroeste 25 Noroeste 0 888.3 0 86
2018-05-03 07:00:00 7.7 15 Noroeste 27 Noroeste 0 888.3 -0.1 87
2018-05-03 06:00:00 7.9 17 Noroeste 26 Noroeste 0 888.3 -0.5 86
2018-05-03 05:00:00 7.5 13 Noroeste 28 Noroeste 0 888.3 -0.9 88
2018-05-03 04:00:00 7.8 13 Noroeste 21 Noroeste 0 888.4 -0.8 88
2018-05-03 03:00:00 8.3 16 Noroeste 31 Noroeste 0 888.8 0 86
2018-05-03 02:00:00 8.6 13 Noroeste 26 Noroeste 0 889.2 0.6 86
2018-05-03 01:00:00 8.8 15 Noroeste 28 Noroeste 0 889.2 0.7 84
2018-05-03 00:00:00 9.1 12 Noroeste 20 Noroeste 0 888.8 0.8 79
2018-05-02 23:00:00 9.2 8 Noroeste 15 Noroeste 0 888.6 0.8 74
2018-05-02 22:00:00 10.3 10 Noroeste 19 Noroeste 0 888.5 0.9 68
2018-05-02 21:00:00 11 15 Noroeste 27 Oeste 0 888 0.7 62
2018-05-02 20:00:00 11.6 18 Noroeste 30 Noroeste 0 887.8 0.7 57
2018-05-02 19:00:00 11.8 20 Noroeste 33 Norte 0 887.6 0.3 54
2018-05-02 18:00:00 13.3 19 Noroeste 35 Noroeste 0 887.3 0.2 44
2018-05-02 17:00:00 13.4 21 Noroeste 32 Noroeste 0 887.1 -0.2 38
2018-05-02 16:00:00 12.9 21 Noroeste 32 Noroeste 0 887.3 0.1 34
2018-05-02 15:00:00 12.3 22 Noroeste 35 Norte 0 887.1 -0.1 33
2018-05-02 14:00:00 11.7 15 Noroeste 30 Noroeste 0 887.3 0.3 40
2018-05-02 13:00:00 11 17 Noroeste 26 Norte 0 887.2 0.4 43
2018-05-02 12:00:00 9.6 10 Norte 20 Noroeste 0 887.2 0.8 52
2018-05-02 11:00:00 8.2 12 Noroeste 21 Norte 0 887 0.9 63
2018-05-02 10:00:00 7.6 8 Noroeste 11 Noroeste 0 886.8 0.8 64
2018-05-02 09:00:00 5.8 4 Este 7 Sudeste 0 886.4 0.2 70
2018-05-02 08:00:00 3.4 3 Sudeste 10 Sudeste 0 886.1 -0.4 78
2018-05-02 07:00:00 3 4 Sudeste 8 Sudeste 0 886 -0.5 79
2018-05-02 06:00:00 2.8 3 Sudeste 9 Sudoeste 0 886.2 -0.5 79
2018-05-02 05:00:00 3.2 4 Sur 10 Sudoeste 0 886.5 -0.3 74
2018-05-02 04:00:00 3.1 6 Sur 13 Noroeste 0 886.5 -0.2 76
2018-05-02 03:00:00 3.5 0 Calma 8 Sur 0 886.7 -0.2 70
2018-05-02 02:00:00 3.6 4 Sur 6 Sudoeste 0 886.8 0 69
2018-05-02 01:00:00 4.1 3 Sur 5 Sur 0 886.7 0.2 69
2018-05-02 00:00:00 5.1 5 Sur 10 Sur 0 886.9 0.7 64
2018-05-01 23:00:00 6.4 4 Norte 10 Norte 0 886.8 0.8 57
2018-05-01 22:00:00 7.3 6 Norte 17 Noroeste 0 886.5 0.5 51
2018-05-01 21:00:00 9.1 10 Norte 20 Noroeste 0 886.2 0 42
2018-05-01 20:00:00 10.3 10 Noroeste 23 Noroeste 0 886 -0.5 37
2018-05-01 19:00:00 10.6 10 Norte 24 Norte 0 886 -0.8 38
2018-05-01 18:00:00 10.1 13 Norte 23 Norte 0 886.2 -0.8 39
2018-05-01 17:00:00 9.4 13 Norte 29 Norte 0 886.5 -0.7 41
2018-05-01 16:00:00 9.6 14 Norte 37 Noroeste 0 886.8 -0.4 43
2018-05-01 15:00:00 8.4 14 Norte 28 Norte 0 887 -0.4 47
2018-05-01 14:00:00 7.9 16 Nordeste 27 Norte 0 887.2 0.2 52
2018-05-01 13:00:00 7.1 15 Norte 28 Norte 0 887.2 0.4 54
2018-05-01 12:00:00 6.4 13 Nordeste 24 Norte 0 887.4 0.9 57
2018-05-01 11:00:00 5.9 11 Nordeste 22 Nordeste 0 887 0.6 61
2018-05-01 10:00:00 4.3 9 Norte 15 Norte 0 886.8 0.7 80
2018-05-01 09:00:00 3 4 Nordeste 10 Norte 0 886.5 0.5 83
2018-05-01 08:00:00 1.6 5 Norte 19 Norte 0 886.4 0.3 93
2018-05-01 07:00:00 1.9 12 Norte 18 Norte 0 886.1 -0.2 93
2018-05-01 06:00:00 2.3 4 Norte 14 Nordeste 0 886 -0.8 91
2018-05-01 05:00:00 2.8 8 Nordeste 14 Norte 0 886.1 -1.1 92
2018-05-01 04:00:00 3.1 5 Norte 11 Norte 0 886.3 -1 92
2018-05-01 03:00:00 3.1 7 Noroeste 13 Noroeste 0 886.8 -0.1 91
2018-05-01 02:00:00 3.3 6 Norte 14 Noroeste 0 887.2 0.2 89
2018-05-01 01:00:00 3.5 3 Oeste 16 Norte 0 887.3 0.7 85
2018-05-01 00:00:00 3.3 10 Noroeste 23 Noroeste 0 886.9 0.8 87
2018-04-30 23:00:00 3.3 10 Noroeste 16 Noroeste 0 887 1.5 90
2018-04-30 22:00:00 3.2 8 Noroeste 20 Nordeste 0.2 886.6 1.6 91
2018-04-30 21:00:00 3.3 15 Noroeste 30 Noroeste 0.4 886.1 1.5 88
2018-04-30 20:00:00 4.4 12 Noroeste 41 Noroeste 0.4 885.5 0.8 84
2018-04-30 19:00:00 6.8 17 Norte 35 Noroeste 0 885 -0.3 67
2018-04-30 18:00:00 7.9 21 Noroeste 46 Noroeste 0 884.6 -0.7 63
2018-04-30 17:00:00 7.4 22 Noroeste 35 Norte 0 884.7 -0.9 58
2018-04-30 16:00:00 3.6 16 Norte 37 Norte 0 885.3 -0.1 77
2018-04-30 15:00:00 5.2 10 Sur 20 Sudoeste 0.6 885.3 -0.2 68
2018-04-30 14:00:00 4.2 6 Norte 31 Sudoeste 0.8 885.6 0.3 69
2018-04-30 13:00:00 5.7 11 Noroeste 18 Noroeste 0.2 885.4 0.3 58
2018-04-30 12:00:00 4.8 7 Noroeste 16 Noroeste 0 885.5 0.7 72
2018-04-30 11:00:00 4.2 5 Noroeste 14 Noroeste 0 885.3 0.7 65
2018-04-30 10:00:00 4 5 Noroeste 14 Noroeste 0 885.1 0.6 69
2018-04-30 09:00:00 2.6 5 Norte 9 Norte 0 884.8 0.3 73
2018-04-30 08:00:00 0.8 3 Este 5 Este 0 884.6 0.1 87
2018-04-30 07:00:00 0.2 2 Norte 6 Noroeste 0 884.5 0 89
2018-04-30 06:00:00 0.8 3 Sur 8 Sur 0 884.5 -0.5 85
2018-04-30 05:00:00 1.1 4 Sur 7 Sur 0 884.5 -1 87
2018-04-30 04:00:00 1.6 4 Sudeste 9 Noroeste 0 884.5 -0.8 85
2018-04-30 03:00:00 2.2 4 Noroeste 10 Oeste 0 885 -0.5 81
2018-04-30 02:00:00 2.5 5 Sudeste 10 Sudeste 0 885.5 0.1 82
2018-04-30 01:00:00 2.5 5 Sudeste 18 Oeste 0 885.3 0.6 82
2018-04-30 00:00:00 2.5 9 Oeste 19 Sudoeste 0 885.5 1.6 82
2018-04-29 23:00:00 3.5 13 Oeste 25 Noroeste 0 885.4 2.3 76
2018-04-29 22:00:00 3.8 9 Oeste 21 Oeste 0 884.7 1.6 81
2018-04-29 21:00:00 4.3 15 Oeste 39 Oeste 0 883.9 1.5 74
2018-04-29 20:00:00 5.9 15 Oeste 29 Sudoeste 0 883.1 0.8 67
2018-04-29 19:00:00 5.3 16 Oeste 40 Oeste 0 883.1 1.3 85
2018-04-29 18:00:00 6.7 21 Noroeste 42 Noroeste 0 882.4 0.5 68
2018-04-29 17:00:00 7.6 22 Oeste 43 Oeste 0.2 882.3 0.7 60
2018-04-29 16:00:00 8.4 23 Oeste 44 Sudoeste 0 881.8 0.4 63
2018-04-29 15:00:00 7.1 21 Oeste 42 Sudoeste 0.2 881.9 0.8 72
2018-04-29 14:00:00 6.9 21 Oeste 40 Oeste 0 881.6 1.2 75
2018-04-29 13:00:00 6.8 18 Oeste 41 Sudoeste 0 881.4 1.9 66
2018-04-29 12:00:00 5.5 23 Oeste 40 Oeste 0 881.1 2.1 74
2018-04-29 11:00:00 4.4 22 Oeste 37 Oeste 0 880.4 2 80
2018-04-29 10:00:00 2.7 11 Oeste 22 Oeste 0.2 879.5 1.8 92
2018-04-29 09:00:00 1.1 5 Sudoeste 12 Oeste 1.2 879 1.5 94
2018-04-29 08:00:00 1.6 6 Oeste 13 Oeste 2.2 878.4 0.6 92
2018-04-29 07:00:00 2.7 7 Sur 14 Sur 0.8 877.7 -0.3 88
2018-04-29 06:00:00 2.8 5 Sudeste 18 Este 1.2 877.5 -1.1 90
2018-04-29 05:00:00 4 5 Este 21 Este 0.4 877.8 -1.4 84
2018-04-29 04:00:00 4.8 8 Norte 17 Noroeste 0 878 -1.3 76
2018-04-29 03:00:00 5 6 Norte 12 Norte 0 878.6 -0.9 70
2018-04-29 02:00:00 5.6 5 Nordeste 11 Norte 0 879.2 -0.7 67
2018-04-29 01:00:00 6.2 6 Noroeste 17 Norte 0 879.3 -0.7 63
2018-04-29 00:00:00 7.2 9 Norte 14 Oeste 0 879.5 -0.3 56
2018-04-28 23:00:00 7.6 9 Oeste 17 Sudoeste 0 879.9 0 52
2018-04-28 22:00:00 8.1 13 Sudoeste 21 Sudoeste 0 880 -0.2 49
2018-04-28 21:00:00 9 12 Sudoeste 21 Sudoeste 0 879.8 -0.6 53
2018-04-28 20:00:00 10.3 8 Oeste 20 Sudoeste 0 879.9 -0.6 46
2018-04-28 19:00:00 10.7 11 Oeste 26 Noroeste 0 880.2 -0.5 44
2018-04-28 18:00:00 11.6 14 Oeste 25 Oeste 0 880.4 -0.6 44
2018-04-28 17:00:00 11.1 11 Este 26 Sudoeste 0 880.5 -0.7 48
2018-04-28 16:00:00 13.2 11 Sur 31 Sudeste 0 880.7 -0.9 40
2018-04-28 15:00:00 12.4 19 Sur 37 Sur 0 881 -0.6 43
2018-04-28 14:00:00 12.2 18 Sur 40 Sur 0 881.2 -0.1 44
2018-04-28 13:00:00 11.9 17 Sur 34 Sur 0 881.6 0 46
2018-04-28 12:00:00 11.9 13 Sur 39 Sudeste 0 881.6 -0.4 42
2018-04-28 11:00:00 10.5 14 Sudeste 32 Sudeste 0 881.3 -0.6 43
2018-04-28 10:00:00 9.2 12 Sur 27 Sudeste 0 881.6 -0.1 44
2018-04-28 09:00:00 6 8 Nordeste 15 Nordeste 0 882 0.3 86
2018-04-28 08:00:00 6.8 4 Noroeste 19 Sur 0 881.9 -0.5 80
2018-04-28 07:00:00 6.9 3 Oeste 10 Sur 0 881.7 -1 85
2018-04-28 06:00:00 8.1 5 Sudeste 19 Sur 0 881.7 -2 75
2018-04-28 05:00:00 8.8 9 Sudeste 15 Sudeste 0 882.4 -1.9 76
2018-04-28 04:00:00 9 5 Este 9 Este 0 882.7 -2 80
2018-04-28 03:00:00 10.1 3 Noroeste 7 Noroeste 0 883.7 -1.4 74
2018-04-28 02:00:00 10.9 4 Norte 17 Noroeste 0 884.3 -1 74
2018-04-28 01:00:00 11.5 7 Noroeste 10 Noroeste 0 884.7 -0.4 69
2018-04-28 00:00:00 12.1 6 Norte 14 Nordeste 0 885.1 0.2 67
2018-04-27 23:00:00 13.1 8 Norte 15 Norte 0 885.3 0.4 59
2018-04-27 22:00:00 13.8 9 Norte 14 Noroeste 0 885.1 -0.1 60
2018-04-27 21:00:00 14.2 9 Norte 21 Noroeste 0 884.9 -0.4 61
2018-04-27 20:00:00 15 13 Noroeste 24 Oeste 0 884.9 -0.8 57
2018-04-27 19:00:00 16.8 15 Noroeste 23 Noroeste 0 885.2 -1 50
2018-04-27 18:00:00 17.5 12 Noroeste 27 Noroeste 0 885.3 -1.2 46
2018-04-27 17:00:00 17 12 Norte 27 Norte 0 885.7 -1.2 44
2018-04-27 16:00:00 17.2 15 Noroeste 28 Norte 0 886.2 -1.1 46
2018-04-27 15:00:00 16.8 14 Norte 30 Norte 0 886.5 -0.9 48
2018-04-27 14:00:00 15.9 14 Norte 31 Norte 0 886.9 -0.5 45
2018-04-27 13:00:00 15.4 12 Noroeste 26 Noroeste 0 887.3 -0.2 43
2018-04-27 12:00:00 14.7 16 Noroeste 28 Noroeste 0 887.4 -0.1 45
2018-04-27 11:00:00 14 15 Noroeste 25 Oeste 0 887.4 0.2 44
2018-04-27 10:00:00 12.6 9 Oeste 16 Oeste 0 887.5 0.7 60
2018-04-27 09:00:00 11 6 Oeste 14 Oeste 0 887.5 0.9 79
2018-04-27 08:00:00 10.5 8 Noroeste 21 Noroeste 0 887.2 0.2 83
2018-04-27 07:00:00 10.6 7 Noroeste 16 Norte 0 886.8 -0.6 85
2018-04-27 06:00:00 11.3 6 Noroeste 12 Noroeste 0 886.6 -1.2 85
2018-04-27 05:00:00 11.7 4 Oeste 9 Oeste 0 887 -1.1 87
2018-04-27 04:00:00 12.3 4 Noroeste 13 Oeste 0 887.4 -1.1 85
2018-04-27 03:00:00 13.4 6 Oeste 15 Sudoeste 0 887.8 -0.5 75
2018-04-27 02:00:00 12.8 4 Sudoeste 13 Sudoeste 0 888.1 -0.7 79
2018-04-27 01:00:00 13.3 8 Sudoeste 14 Sudoeste 0 888.5 0 78
2018-04-27 00:00:00 12.7 5 Sur 8 Sur 0 888.3 0.3 84
2018-04-26 23:00:00 13.3 3 Sur 9 Sur 0 888.8 0.7 87
2018-04-26 22:00:00 13.8 6 Este 49 Noroeste 12.8 888.5 -0.1 83
2018-04-26 21:00:00 19.4 6 Norte 10 Norte 0 888 -0.7 57
2018-04-26 20:00:00 20.5 3 Noroeste 12 Sur 0 888.1 -1 52
2018-04-26 19:00:00 20.7 7 Sudoeste 21 Sudoeste 0 888.6 -0.8 51
2018-04-26 18:00:00 22.3 10 Oeste 24 Noroeste 0 888.7 -1.1 45
2018-04-26 17:00:00 21.8 12 Norte 28 Noroeste 0 889.1 -1.1 47
2018-04-26 16:00:00 20.8 15 Norte 24 Norte 0 889.4 -1.2 50
2018-04-26 15:00:00 20.5 14 Norte 21 Norte 0 889.8 -1 48
2018-04-26 14:00:00 19.4 11 Noroeste 20 Norte 0 890.2 -0.5 54
2018-04-26 13:00:00 18.4 11 Norte 19 Norte 0 890.6 -0.1 56
2018-04-26 12:00:00 16.7 11 Norte 17 Noroeste 0 890.8 0.3 61
2018-04-26 11:00:00 15.1 3 Sudoeste 9 Sudoeste 0 890.7 0.3 64
2018-04-26 10:00:00 11.6 4 Sur 10 Sur 0 890.7 0.4 75
2018-04-26 09:00:00 8.7 3 Sur 7 Sur 0 890.5 0 87
2018-04-26 08:00:00 6.7 2 Noroeste 10 Nordeste 0 890.4 -0.1 94
2018-04-26 07:00:00 6.8 8 Nordeste 13 Nordeste 0 890.3 -0.5 95
2018-04-26 06:00:00 8.5 6 Norte 14 Norte 0 890.5 -1 88
2018-04-26 05:00:00 10.5 4 Noroeste 10 Sudeste 0 890.5 -1.2 81
2018-04-26 04:00:00 10.6 6 Sur 10 Sur 0 890.8 -1.1 71
2018-04-26 03:00:00 10.4 5 Nordeste 14 Norte 0 891.5 -0.6 87
2018-04-26 02:00:00 12.2 6 Norte 15 Norte 0 891.7 0.1 80
2018-04-26 01:00:00 14.8 5 Noroeste 12 Sudeste 0 891.9 0.9 72
2018-04-26 00:00:00 14.8 12 Este 19 Nordeste 0 892.1 2.2 73
2018-04-25 23:00:00 16.7 14 Norte 28 Este 0 891.6 2.1 66
2018-04-25 22:00:00 18.5 11 Nordeste 18 Norte 0 891 1.4 60
2018-04-25 21:00:00 20.5 14 Norte 30 Norte 0 889.9 0.5 41
2018-04-25 20:00:00 22.4 18 Noroeste 32 Norte 0 889.5 -0.2 39
2018-04-25 19:00:00 23.3 21 Norte 33 Noroeste 0 889.6 -0.6 40
2018-04-25 18:00:00 23.9 21 Noroeste 34 Noroeste 0 889.4 -1.1 35
2018-04-25 17:00:00 23.7 20 Norte 37 Norte 0 889.7 -1.2 33
2018-04-25 16:00:00 23.6 20 Norte 34 Norte 0 890.2 -1.1 36
2018-04-25 15:00:00 23.1 18 Norte 36 Norte 0 890.5 -1.1 38
2018-04-25 14:00:00 22.6 17 Norte 32 Norte 0 890.9 -0.5 32
2018-04-25 13:00:00 21.5 14 Norte 27 Norte 0 891.3 -0.5 37
2018-04-25 12:00:00 20.6 9 Norte 21 Norte 0 891.6 0 38
2018-04-25 11:00:00 17.2 4 Norte 19 Sur 0 891.4 0.2 47
2018-04-25 10:00:00 13.6 4 Sudoeste 7 Sudoeste 0 891.8 1 58
2018-04-25 09:00:00 12.7 3 Sur 11 Sur 0 891.6 1.4 59
2018-04-25 08:00:00 11.9 6 Sudeste 13 Sudeste 0 891.2 1.3 59
2018-04-25 07:00:00 11.3 8 Sur 12 Sur 0 890.8 0.6 64
2018-04-25 06:00:00 10.8 6 Sur 12 Sur 0 890.2 -0.3 68
2018-04-25 05:00:00 10.6 5 Sur 7 Sur 0 889.9 -1 69
2018-04-25 04:00:00 11.4 5 Sudeste 13 Sur 0 890.2 -0.9 72
2018-04-25 03:00:00 12.4 5 Sur 10 Sur 0 890.5 -0.7 67
2018-04-25 02:00:00 13.3 0 Calma 11 Este 0 890.9 -0.1 61
2018-04-25 01:00:00 14.6 2 Oeste 14 Este 0 891.1 0.6 56
2018-04-25 00:00:00 15.9 8 Sudeste 17 Nordeste 0 891.2 1 49
2018-04-24 23:00:00 17 12 Nordeste 21 Nordeste 0 891 1.1 46
2018-04-24 22:00:00 18.3 6 Sudeste 9 Sudeste 0 890.5 0.8 44
2018-04-24 21:00:00 19.2 5 Sudeste 10 Sudeste 0 890.2 0.3 44
2018-04-24 20:00:00 20.7 6 Sudeste 18 Sur 0 889.9 -0.1 41
2018-04-24 19:00:00 22 9 Sudeste 20 Sudeste 0 889.7 -0.4 35
2018-04-24 18:00:00 21.9 13 Sudeste 29 Sudeste 0 889.9 -0.4 31
2018-04-24 17:00:00 22.9 17 Sudeste 33 Sudeste 0 890 -0.7 33
2018-04-24 16:00:00 23.6 12 Sudeste 22 Sudeste 0 890.1 -1.1 26
2018-04-24 15:00:00 22.8 8 Este 22 Sudeste 0 890.3 -1 25
2018-04-24 14:00:00 21.5 11 Sudeste 25 Sudeste 0 890.7 -0.6 28
2018-04-24 13:00:00 20.6 10 Sudeste 24 Sudeste 0 891.2 -0.1 25
2018-04-24 12:00:00 19.2 12 Sudeste 25 Sudeste 0 891.3 0.4 30
2018-04-24 11:00:00 17.4 8 Sudeste 17 Sur 0 891.3 1 42
2018-04-24 10:00:00 15.9 8 Sudeste 20 Sudeste 0 891.3 1.1 51
2018-04-24 09:00:00 13.2 4 Sudeste 14 Este 0 890.9 0.4 65
2018-04-24 08:00:00 11.9 10 Sudeste 17 Sudeste 0 890.3 -0.4 65
2018-04-24 07:00:00 13.3 8 Sudeste 26 Sur 0 890.2 -0.3 60
2018-04-24 06:00:00 14.2 8 Sudeste 27 Sur 0 890.5 -0.5 54
2018-04-24 05:00:00 14.8 10 Sudeste 36 Sudeste 0 890.7 -0.4 48
2018-04-24 04:00:00 15.1 12 Sur 26 Sudeste 0 890.5 -0.5 45
2018-04-24 03:00:00 14.9 11 Este 29 Sudeste 0 891 0.1 59
2018-04-24 02:00:00 14.9 10 Este 20 Este 0 891.1 0.2 60
2018-04-24 01:00:00 15.8 13 Sudeste 26 Sudeste 0 891 0.7 58
2018-04-24 00:00:00 16 13 Sudeste 26 Sudeste 0 890.9 0.9 56